sensor_id;sensor_type;location;lat;lon;timestamp;pressure;altitude;pressure_sealevel;temperature;humidity
20228;BME280;12195;55.790;37.572;2023-07-16T00:00:07;99491.23;;;16.54;81.37
20228;BME280;12195;55.790;37.572;2023-07-16T00:02:50;99492.64;;;16.69;81.80
20228;BME280;12195;55.790;37.572;2023-07-16T00:05:24;99492.86;;;16.46;81.96
20228;BME280;12195;55.790;37.572;2023-07-16T00:08:08;99494.84;;;16.64;82.03
20228;BME280;12195;55.790;37.572;2023-07-16T00:10:41;99498.03;;;16.47;81.85
20228;BME280;12195;55.790;37.572;2023-07-16T00:13:23;99497.81;;;16.71;81.70
20228;BME280;12195;55.790;37.572;2023-07-16T00:15:56;99494.16;;;16.51;81.63
20228;BME280;12195;55.790;37.572;2023-07-16T00:18:38;99491.78;;;16.69;82.07
20228;BME280;12195;55.790;37.572;2023-07-16T00:21:24;99497.69;;;16.72;81.92
20228;BME280;12195;55.790;37.572;2023-07-16T00:23:57;99494.98;;;16.52;81.59
20228;BME280;12195;55.790;37.572;2023-07-16T00:26:39;99497.69;;;16.72;81.65
20228;BME280;12195;55.790;37.572;2023-07-16T00:29:12;99502.00;;;16.53;81.45
20228;BME280;12195;55.790;37.572;2023-07-16T00:31:55;99502.02;;;16.73;81.52
20228;BME280;12195;55.790;37.572;2023-07-16T00:34:38;99503.81;;;16.73;81.67
20228;BME280;12195;55.790;37.572;2023-07-16T00:37:11;99501.14;;;16.52;81.36
20228;BME280;12195;55.790;37.572;2023-07-16T00:39:53;99501.32;;;16.71;81.59
20228;BME280;12195;55.790;37.572;2023-07-16T00:42:26;99505.47;;;16.53;81.22
20228;BME280;12195;55.790;37.572;2023-07-16T00:45:12;99509.98;;;16.73;81.58
20228;BME280;12195;55.790;37.572;2023-07-16T00:47:56;99509.85;;;16.75;81.49
20228;BME280;12195;55.790;37.572;2023-07-16T00:50:40;99520.34;;;16.76;81.25
20228;BME280;12195;55.790;37.572;2023-07-16T00:53:14;99514.98;;;16.56;81.09
20228;BME280;12195;55.790;37.572;2023-07-16T00:55:46;99514.16;;;16.55;81.01
20228;BME280;12195;55.790;37.572;2023-07-16T00:58:30;99519.48;;;16.76;81.21
20228;BME280;12195;55.790;37.572;2023-07-16T01:01:04;99514.16;;;16.55;80.95
20228;BME280;12195;55.790;37.572;2023-07-16T01:03:37;99514.86;;;16.57;80.91
20228;BME280;12195;55.790;37.572;2023-07-16T01:06:32;99508.75;;;16.77;81.10
20228;BME280;12195;55.790;37.572;2023-07-16T01:09:03;99510.29;;;16.59;80.71
20228;BME280;12195;55.790;37.572;2023-07-16T01:11:48;99515.61;;;16.80;80.94
20228;BME280;12195;55.790;37.572;2023-07-16T01:14:19;99519.91;;;16.60;80.64
20228;BME280;12195;55.790;37.572;2023-07-16T01:17:06;99524.02;;;16.85;80.13
20228;BME280;12195;55.790;37.572;2023-07-16T01:19:48;99534.30;;;16.78;80.62
20228;BME280;12195;55.790;37.572;2023-07-16T01:26:01;99526.92;;;16.50;81.67
20228;BME280;12195;55.790;37.572;2023-07-16T01:31:46;99534.51;;;16.55;81.15
20228;BME280;12195;55.790;37.572;2023-07-16T01:34:32;99533.48;;;16.78;81.30
20228;BME280;12195;55.790;37.572;2023-07-16T01:37:06;99534.14;;;16.59;80.88
20228;BME280;12195;55.790;37.572;2023-07-16T01:39:48;99536.00;;;16.79;81.07
20228;BME280;12195;55.790;37.572;2023-07-16T01:42:21;99537.25;;;16.64;80.63
20228;BME280;12195;55.790;37.572;2023-07-16T01:45:06;99538.71;;;16.89;80.68
20228;BME280;12195;55.790;37.572;2023-07-16T01:50:42;99542.30;;;16.99;80.17
20228;BME280;12195;55.790;37.572;2023-07-16T01:53:25;99542.88;;;17.02;79.84
20228;BME280;12195;55.790;37.572;2023-07-16T01:55:58;99538.84;;;16.87;79.42
20228;BME280;12195;55.790;37.572;2023-07-16T01:58:42;99537.64;;;17.12;79.72
20228;BME280;12195;55.790;37.572;2023-07-16T02:01:14;99548.70;;;16.96;79.40
20228;BME280;12195;55.790;37.572;2023-07-16T02:03:57;99542.78;;;17.24;79.05
20228;BME280;12195;55.790;37.572;2023-07-16T02:06:29;99537.32;;;17.05;79.15
20228;BME280;12195;55.790;37.572;2023-07-16T02:09:02;99538.75;;;17.09;78.98
20228;BME280;12195;55.790;37.572;2023-07-16T02:11:34;99534.87;;;17.13;78.73
20228;BME280;12195;55.790;37.572;2023-07-16T02:14:18;99545.09;;;17.38;78.83
20228;BME280;12195;55.790;37.572;2023-07-16T02:16:51;99545.68;;;17.21;78.40
20228;BME280;12195;55.790;37.572;2023-07-16T02:19:33;99541.68;;;17.47;78.58
20228;BME280;12195;55.790;37.572;2023-07-16T02:22:16;99547.30;;;17.54;78.31
20228;BME280;12195;55.790;37.572;2023-07-16T02:24:48;99541.99;;;17.33;78.02
20228;BME280;12195;55.790;37.572;2023-07-16T02:27:33;99543.16;;;17.61;78.20
20228;BME280;12195;55.790;37.572;2023-07-16T02:30:07;99544.75;;;17.43;77.86
20228;BME280;12195;55.790;37.572;2023-07-16T02:32:49;99549.51;;;17.69;77.88
20228;BME280;12195;55.790;37.572;2023-07-16T02:35:24;99551.92;;;17.52;77.52
20228;BME280;12195;55.790;37.572;2023-07-16T02:38:08;99560.28;;;17.77;77.64
20228;BME280;12195;55.790;37.572;2023-07-16T02:40:44;99555.59;;;17.60;77.40
20228;BME280;12195;55.790;37.572;2023-07-16T02:43:17;99546.38;;;17.64;76.93
20228;BME280;12195;55.790;37.572;2023-07-16T02:45:59;99553.78;;;17.91;77.47
20228;BME280;12195;55.790;37.572;2023-07-16T02:48:32;99556.67;;;17.78;77.10
20228;BME280;12195;55.790;37.572;2023-07-16T02:51:16;99563.52;;;18.11;76.76
20228;BME280;12195;55.790;37.572;2023-07-16T02:53:49;99551.72;;;17.94;76.20
20228;BME280;12195;55.790;37.572;2023-07-16T02:56:34;99556.73;;;18.27;76.12
20228;BME280;12195;55.790;37.572;2023-07-16T02:59:06;99557.77;;;18.06;75.33
20228;BME280;12195;55.790;37.572;2023-07-16T03:01:49;99562.48;;;18.32;75.58
20228;BME280;12195;55.790;37.572;2023-07-16T03:04:22;99563.64;;;18.09;75.03
20228;BME280;12195;55.790;37.572;2023-07-16T03:07:05;99571.05;;;18.36;74.97
20228;BME280;12195;55.790;37.572;2023-07-16T03:09:48;99577.08;;;18.38;74.80
20228;BME280;12195;55.790;37.572;2023-07-16T03:12:20;99574.14;;;18.11;74.56
20228;BME280;12195;55.790;37.572;2023-07-16T03:15:03;99580.69;;;18.37;75.13
20228;BME280;12195;55.790;37.572;2023-07-16T03:17:47;99584.07;;;18.39;75.35
20228;BME280;12195;55.790;37.572;2023-07-16T03:20:20;99578.52;;;18.21;74.89
20228;BME280;12195;55.790;37.572;2023-07-16T03:23:05;99578.52;;;18.51;74.79
20228;BME280;12195;55.790;37.572;2023-07-16T03:25:37;99572.68;;;18.27;74.18
20228;BME280;12195;55.790;37.572;2023-07-16T03:28:22;99591.52;;;18.54;74.26
20228;BME280;12195;55.790;37.572;2023-07-16T03:31:06;99575.44;;;18.56;74.50
20228;BME280;12195;55.790;37.572;2023-07-16T03:33:40;99574.55;;;18.36;73.88
20228;BME280;12195;55.790;37.572;2023-07-16T03:36:24;99583.44;;;18.65;73.90
20228;BME280;12195;55.790;37.572;2023-07-16T03:39:06;99580.38;;;18.70;73.63
20228;BME280;12195;55.790;37.572;2023-07-16T03:41:48;99582.05;;;18.71;73.85
20228;BME280;12195;55.790;37.572;2023-07-16T03:44:21;99583.38;;;18.46;73.38
20228;BME280;12195;55.790;37.572;2023-07-16T03:47:04;99595.75;;;18.66;73.68
20228;BME280;12195;55.790;37.572;2023-07-16T03:49:37;99589.52;;;18.37;73.74
20228;BME280;12195;55.790;37.572;2023-07-16T03:52:21;99593.65;;;18.60;74.09
20228;BME280;12195;55.790;37.572;2023-07-16T03:55:06;99597.98;;;18.61;74.15
20228;BME280;12195;55.790;37.572;2023-07-16T03:57:50;99595.88;;;18.65;74.05
20228;BME280;12195;55.790;37.572;2023-07-16T04:00:26;99592.08;;;18.48;73.77
20228;BME280;12195;55.790;37.572;2023-07-16T04:02:58;99593.78;;;18.59;72.93
20228;BME280;12195;55.790;37.572;2023-07-16T04:05:41;99600.00;;;18.97;72.90
20228;BME280;12195;55.790;37.572;2023-07-16T04:08:14;99594.80;;;18.86;72.57
20228;BME280;12195;55.790;37.572;2023-07-16T04:10:57;99612.35;;;19.27;72.38
20228;BME280;12195;55.790;37.572;2023-07-16T04:13:30;99603.78;;;19.14;71.12
20228;BME280;12195;55.790;37.572;2023-07-16T04:16:14;99610.23;;;19.49;71.28
20228;BME280;12195;55.790;37.572;2023-07-16T04:18:48;99609.01;;;19.25;70.49
20228;BME280;12195;55.790;37.572;2023-07-16T04:21:30;99606.47;;;19.52;70.75
20228;BME280;12195;55.790;37.572;2023-07-16T04:24:03;99599.21;;;19.25;70.55
20228;BME280;12195;55.790;37.572;2023-07-16T04:26:47;99614.30;;;19.53;70.68
20228;BME280;12195;55.790;37.572;2023-07-16T04:29:20;99614.33;;;19.25;70.62
20228;BME280;12195;55.790;37.572;2023-07-16T04:32:03;99622.59;;;19.50;70.89
20228;BME280;12195;55.790;37.572;2023-07-16T04:34:35;99616.86;;;19.26;70.89
20228;BME280;12195;55.790;37.572;2023-07-16T04:37:17;99616.00;;;19.54;71.11
20228;BME280;12195;55.790;37.572;2023-07-16T04:39:50;99610.95;;;19.32;70.87
20228;BME280;12195;55.790;37.572;2023-07-16T04:42:33;99622.59;;;19.60;71.06
20228;BME280;12195;55.790;37.572;2023-07-16T04:45:05;99613.62;;;19.32;70.53
20228;BME280;12195;55.790;37.572;2023-07-16T04:47:48;99618.08;;;19.60;70.82
20228;BME280;12195;55.790;37.572;2023-07-16T04:50:21;99611.81;;;19.42;70.75
20228;BME280;12195;55.790;37.572;2023-07-16T04:53:06;99617.06;;;19.80;70.58
20228;BME280;12195;55.790;37.572;2023-07-16T04:55:39;99608.55;;;19.67;69.53
20228;BME280;12195;55.790;37.572;2023-07-16T04:58:12;99611.87;;;19.79;69.01
20228;BME280;12195;55.790;37.572;2023-07-16T05:00:55;99615.89;;;20.11;68.68
20228;BME280;12195;55.790;37.572;2023-07-16T05:03:27;99605.98;;;19.85;68.73
20228;BME280;12195;55.790;37.572;2023-07-16T05:06:09;99615.69;;;20.22;69.08
20228;BME280;12195;55.790;37.572;2023-07-16T05:08:55;99610.03;;;20.35;68.52
20228;BME280;12195;55.790;37.572;2023-07-16T05:11:28;99607.30;;;20.17;67.09
20228;BME280;12195;55.790;37.572;2023-07-16T05:14:00;99608.29;;;20.16;67.51
20228;BME280;12195;55.790;37.572;2023-07-16T05:16:44;99613.34;;;20.46;67.73
20228;BME280;12195;55.790;37.572;2023-07-16T05:19:17;99615.01;;;20.20;66.97
20228;BME280;12195;55.790;37.572;2023-07-16T05:22:00;99618.20;;;20.61;67.83
20228;BME280;12195;55.790;37.572;2023-07-16T05:24:33;99616.30;;;20.43;66.51
20228;BME280;12195;55.790;37.572;2023-07-16T05:27:15;99627.64;;;20.73;66.57
20228;BME280;12195;55.790;37.572;2023-07-16T05:29:48;99614.91;;;20.39;66.56
20228;BME280;12195;55.790;37.572;2023-07-16T05:32:51;99619.34;;;20.76;67.13
20228;BME280;12195;55.790;37.572;2023-07-16T05:35:24;99612.30;;;20.57;66.34
20228;BME280;12195;55.790;37.572;2023-07-16T05:38:06;99613.45;;;20.99;66.44
20228;BME280;12195;55.790;37.572;2023-07-16T05:40:39;99619.27;;;20.95;65.07
20228;BME280;12195;55.790;37.572;2023-07-16T05:43:23;99619.33;;;21.38;64.94
20228;BME280;12195;55.790;37.572;2023-07-16T05:46:06;99617.80;;;21.53;64.27
20228;BME280;12195;55.790;37.572;2023-07-16T05:48:39;99615.36;;;21.42;63.32
20228;BME280;12195;55.790;37.572;2023-07-16T05:51:23;99626.92;;;21.85;63.41
20228;BME280;12195;55.790;37.572;2023-07-16T05:53:56;99624.12;;;21.69;62.39
20228;BME280;12195;55.790;37.572;2023-07-16T05:56:38;99625.92;;;22.12;62.52
20228;BME280;12195;55.790;37.572;2023-07-16T05:59:11;99622.78;;;21.91;61.55
20228;BME280;12195;55.790;37.572;2023-07-16T06:01:44;99619.50;;;21.97;61.43
20228;BME280;12195;55.790;37.572;2023-07-16T06:04:17;99615.87;;;22.06;61.37
20228;BME280;12195;55.790;37.572;2023-07-16T06:06:59;99629.15;;;22.49;61.45
20228;BME280;12195;55.790;37.572;2023-07-16T06:09:32;99627.02;;;22.27;60.60
20228;BME280;12195;55.790;37.572;2023-07-16T06:12:15;99631.89;;;22.65;61.12
20228;BME280;12195;55.790;37.572;2023-07-16T06:14:47;99624.89;;;22.38;60.36
20228;BME280;12195;55.790;37.572;2023-07-16T06:17:30;99625.94;;;22.79;61.01
20228;BME280;12195;55.790;37.572;2023-07-16T06:20:03;99624.24;;;22.70;59.49
20228;BME280;12195;55.790;37.572;2023-07-16T06:22:47;99631.23;;;23.20;59.25
20228;BME280;12195;55.790;37.572;2023-07-16T06:25:20;99621.40;;;22.79;58.64
20228;BME280;12195;55.790;37.572;2023-07-16T06:28:02;99632.71;;;23.07;60.11
20228;BME280;12195;55.790;37.572;2023-07-16T06:30:35;99627.86;;;22.61;59.13
20228;BME280;12195;55.790;37.572;2023-07-16T06:33:07;99627.95;;;22.43;60.15
20228;BME280;12195;55.790;37.572;2023-07-16T06:35:43;99618.72;;;22.38;60.54
20228;BME280;12195;55.790;37.572;2023-07-16T06:38:27;99629.94;;;22.75;60.71
20228;BME280;12195;55.790;37.572;2023-07-16T06:41:01;99633.53;;;22.50;60.09
20228;BME280;12195;55.790;37.572;2023-07-16T06:43:44;99625.61;;;22.90;60.65
20228;BME280;12195;55.790;37.572;2023-07-16T06:46:17;99627.79;;;22.86;58.90
20228;BME280;12195;55.790;37.572;2023-07-16T06:49:02;99638.13;;;23.23;59.37
20228;BME280;12195;55.790;37.572;2023-07-16T06:51:35;99625.43;;;22.83;58.97
20228;BME280;12195;55.790;37.572;2023-07-16T06:54:17;99636.34;;;22.98;60.08
20228;BME280;12195;55.790;37.572;2023-07-16T06:56:50;99630.73;;;22.67;60.39
20228;BME280;12195;55.790;37.572;2023-07-16T06:59:33;99635.89;;;23.10;60.27
20228;BME280;12195;55.790;37.572;2023-07-16T07:02:18;99646.51;;;23.28;59.39
20228;BME280;12195;55.790;37.572;2023-07-16T07:05:01;99647.16;;;23.30;59.23
20228;BME280;12195;55.790;37.572;2023-07-16T07:07:34;99639.72;;;23.00;58.89
20228;BME280;12195;55.790;37.572;2023-07-16T07:10:16;99647.16;;;23.22;58.91
20228;BME280;12195;55.790;37.572;2023-07-16T07:12:49;99646.32;;;22.72;59.70
20228;BME280;12195;55.790;37.572;2023-07-16T07:15:31;99647.08;;;23.06;59.40
20228;BME280;12195;55.790;37.572;2023-07-16T07:18:15;99650.30;;;23.09;59.38
20228;BME280;12195;55.790;37.572;2023-07-16T07:20:48;99641.47;;;22.75;59.02
20228;BME280;12195;55.790;37.572;2023-07-16T07:23:34;99644.58;;;23.12;59.54
20228;BME280;12195;55.790;37.572;2023-07-16T07:26:06;99645.26;;;23.06;59.17
20228;BME280;12195;55.790;37.572;2023-07-16T07:28:55;99647.19;;;23.62;58.11
20228;BME280;12195;55.790;37.572;2023-07-16T07:31:28;99643.16;;;23.50;56.42
20228;BME280;12195;55.790;37.572;2023-07-16T07:34:00;99654.41;;;23.45;56.73
20228;BME280;12195;55.790;37.572;2023-07-16T07:36:36;99653.56;;;23.53;56.54
20228;BME280;12195;55.790;37.572;2023-07-16T07:39:22;99659.26;;;23.82;56.44
20228;BME280;12195;55.790;37.572;2023-07-16T07:41:54;99654.20;;;23.31;56.77
20228;BME280;12195;55.790;37.572;2023-07-16T07:44:37;99657.75;;;23.47;57.43
20228;BME280;12195;55.790;37.572;2023-07-16T07:47:11;99644.63;;;23.20;56.85
20228;BME280;12195;55.790;37.572;2023-07-16T07:49:53;99645.86;;;23.66;56.85
20228;BME280;12195;55.790;37.572;2023-07-16T07:52:27;99638.13;;;23.63;56.04
20228;BME280;12195;55.790;37.572;2023-07-16T07:55:11;99645.44;;;24.33;55.68
20228;BME280;12195;55.790;37.572;2023-07-16T07:57:44;99626.98;;;24.38;54.22
20228;BME280;12195;55.790;37.572;2023-07-16T08:00:27;99644.36;;;24.96;53.89
20228;BME280;12195;55.790;37.572;2023-07-16T08:02:59;99627.42;;;24.96;52.17
20228;BME280;12195;55.790;37.572;2023-07-16T08:05:44;99641.95;;;25.40;53.10
20228;BME280;12195;55.790;37.572;2023-07-16T08:08:16;99632.14;;;25.17;51.79
20228;BME280;12195;55.790;37.572;2023-07-16T08:10:59;99640.53;;;25.67;52.35
20228;BME280;12195;55.790;37.572;2023-07-16T08:13:31;99634.17;;;25.45;50.20
20228;BME280;12195;55.790;37.572;2023-07-16T08:16:14;99630.89;;;25.95;50.90
20228;BME280;12195;55.790;37.572;2023-07-16T08:18:47;99626.72;;;25.70;49.68
20228;BME280;12195;55.790;37.572;2023-07-16T08:21:32;99626.02;;;26.13;49.96
20228;BME280;12195;55.790;37.572;2023-07-16T08:24:05;99623.75;;;25.65;48.94
20228;BME280;12195;55.790;37.572;2023-07-16T08:26:37;99645.24;;;25.87;49.49
20228;BME280;12195;55.790;37.572;2023-07-16T08:29:20;99642.18;;;25.53;50.52
20228;BME280;12195;55.790;37.572;2023-07-16T08:31:52;99629.89;;;25.06;50.51
20228;BME280;12195;55.790;37.572;2023-07-16T08:34:36;99637.68;;;25.46;51.38
20228;BME280;12195;55.790;37.572;2023-07-16T08:37:20;99643.91;;;25.46;50.99
20228;BME280;12195;55.790;37.572;2023-07-16T08:39:53;99632.16;;;24.86;50.80
20228;BME280;12195;55.790;37.572;2023-07-16T08:42:40;99646.48;;;25.09;51.61
20228;BME280;12195;55.790;37.572;2023-07-16T08:45:15;99643.66;;;24.72;51.83
20228;BME280;12195;55.790;37.572;2023-07-16T08:48:00;99639.86;;;25.20;51.88
20228;BME280;12195;55.790;37.572;2023-07-16T08:50:43;99639.05;;;25.42;51.25
20228;BME280;12195;55.790;37.572;2023-07-16T08:53:17;99632.94;;;25.25;50.58
20228;BME280;12195;55.790;37.572;2023-07-16T08:56:01;99628.88;;;25.74;50.73
20228;BME280;12195;55.790;37.572;2023-07-16T08:58:37;99612.59;;;25.53;49.94
20228;BME280;12195;55.790;37.572;2023-07-16T09:01:19;99625.82;;;26.00;49.36
20228;BME280;12195;55.790;37.572;2023-07-16T09:04:06;99616.81;;;26.07;49.35
20228;BME280;12195;55.790;37.572;2023-07-16T09:06:39;99611.74;;;25.53;49.69
20228;BME280;12195;55.790;37.572;2023-07-16T09:09:25;99618.90;;;25.60;50.42
20228;BME280;12195;55.790;37.572;2023-07-16T09:11:57;99615.91;;;24.79;51.17
20228;BME280;12195;55.790;37.572;2023-07-16T09:14:42;99628.66;;;24.85;52.64
20228;BME280;12195;55.790;37.572;2023-07-16T09:17:23;99622.02;;;24.11;52.65
20228;BME280;12195;55.790;37.572;2023-07-16T09:20:07;99628.39;;;24.18;54.03
20228;BME280;12195;55.790;37.572;2023-07-16T09:22:53;99633.11;;;23.92;54.46
20228;BME280;12195;55.790;37.572;2023-07-16T09:28:13;99635.29;;;23.72;54.24
20228;BME280;12195;55.790;37.572;2023-07-16T09:30:47;99628.94;;;23.41;54.80
20228;BME280;12195;55.790;37.572;2023-07-16T09:33:31;99628.27;;;23.63;54.14
20228;BME280;12195;55.790;37.572;2023-07-16T09:36:04;99628.73;;;23.35;53.12
20228;BME280;12195;55.790;37.572;2023-07-16T09:38:47;99634.63;;;23.62;53.54
20228;BME280;12195;55.790;37.572;2023-07-16T09:41:20;99620.89;;;23.33;54.35
20228;BME280;12195;55.790;37.572;2023-07-16T09:44:06;99631.43;;;23.67;52.99
20228;BME280;12195;55.790;37.572;2023-07-16T09:46:39;99619.36;;;23.39;53.42
20228;BME280;12195;55.790;37.572;2023-07-16T09:49:22;99633.30;;;23.66;52.66
20228;BME280;12195;55.790;37.572;2023-07-16T09:52:05;99633.45;;;23.73;52.76
20228;BME280;12195;55.790;37.572;2023-07-16T09:54:49;99631.74;;;23.88;52.12
20228;BME280;12195;55.790;37.572;2023-07-16T09:57:37;99639.80;;;24.04;51.51
20228;BME280;12195;55.790;37.572;2023-07-16T10:00:24;99627.34;;;24.27;51.62
20228;BME280;12195;55.790;37.572;2023-07-16T10:02:58;99619.24;;;24.43;50.30
20228;BME280;12195;55.790;37.572;2023-07-16T10:05:40;99632.11;;;24.94;48.49
20228;BME280;12195;55.790;37.572;2023-07-16T10:08:20;99624.04;;;24.63;47.62
20228;BME280;12195;55.790;37.572;2023-07-16T10:11:02;99622.13;;;24.80;48.68
20228;BME280;12195;55.790;37.572;2023-07-16T10:13:50;99622.68;;;24.67;48.44
20228;BME280;12195;55.790;37.572;2023-07-16T10:16:23;99623.93;;;24.41;48.57
20228;BME280;12195;55.790;37.572;2023-07-16T10:19:08;99626.52;;;24.73;48.69
20228;BME280;12195;55.790;37.572;2023-07-16T10:21:40;99622.38;;;24.62;46.70
20228;BME280;12195;55.790;37.572;2023-07-16T10:24:26;99621.49;;;25.00;47.50
20228;BME280;12195;55.790;37.572;2023-07-16T10:26:58;99611.30;;;24.96;45.80
20228;BME280;12195;55.790;37.572;2023-07-16T10:29:41;99615.11;;;25.55;46.49
20228;BME280;12195;55.790;37.572;2023-07-16T10:32:14;99626.52;;;25.34;46.41
20228;BME280;12195;55.790;37.572;2023-07-16T10:34:57;99627.77;;;25.46;46.53
20228;BME280;12195;55.790;37.572;2023-07-16T10:37:31;99629.97;;;24.89;45.62
20228;BME280;12195;55.790;37.572;2023-07-16T10:40:05;99613.39;;;24.78;46.81
20228;BME280;12195;55.790;37.572;2023-07-16T10:42:40;99616.03;;;24.86;47.12
20228;BME280;12195;55.790;37.572;2023-07-16T10:45:28;99622.16;;;25.33;47.10
20228;BME280;12195;55.790;37.572;2023-07-16T10:48:11;99631.58;;;25.74;46.18
20228;BME280;12195;55.790;37.572;2023-07-16T10:50:44;99619.35;;;25.49;43.88
20228;BME280;12195;55.790;37.572;2023-07-16T10:53:27;99621.80;;;25.59;44.72
20228;BME280;12195;55.790;37.572;2023-07-16T10:56:09;99617.75;;;25.40;45.34
20228;BME280;12195;55.790;37.572;2023-07-16T10:58:43;99616.52;;;25.20;45.37
20228;BME280;12195;55.790;37.572;2023-07-16T11:01:25;99625.66;;;25.56;45.17
20228;BME280;12195;55.790;37.572;2023-07-16T11:04:01;99613.42;;;25.31;43.84
20228;BME280;12195;55.790;37.572;2023-07-16T11:06:45;99612.07;;;25.72;44.68
20228;BME280;12195;55.790;37.572;2023-07-16T11:09:28;99615.41;;;25.97;44.54
20228;BME280;12195;55.790;37.572;2023-07-16T11:12:08;99606.14;;;26.14;43.31
20228;BME280;12195;55.790;37.572;2023-07-16T11:14:45;99602.91;;;26.18;42.57
20228;BME280;12195;55.790;37.572;2023-07-16T11:17:18;99598.05;;;25.99;43.09
20228;BME280;12195;55.790;37.572;2023-07-16T11:20:02;99613.01;;;26.31;43.84
20228;BME280;12195;55.790;37.572;2023-07-16T11:22:37;99588.45;;;26.84;41.32
20228;BME280;12195;55.790;37.572;2023-07-16T11:25:25;99609.40;;;27.38;41.03
20228;BME280;12195;55.790;37.572;2023-07-16T11:27:58;99589.38;;;28.02;38.09
20228;BME280;12195;55.790;37.572;2023-07-16T11:30:40;99589.80;;;29.54;36.26
20228;BME280;12195;55.790;37.572;2023-07-16T11:33:23;99594.41;;;31.26;33.56
20228;BME280;12195;55.790;37.572;2023-07-16T11:36:07;99593.02;;;33.23;31.50
20228;BME280;12195;55.790;37.572;2023-07-16T11:39:11;99590.91;;;34.81;29.13
20228;BME280;12195;55.790;37.572;2023-07-16T11:41:59;99588.87;;;35.16;28.02
20228;BME280;12195;55.790;37.572;2023-07-16T11:44:34;99585.97;;;34.09;27.46
20228;BME280;12195;55.790;37.572;2023-07-16T11:47:06;99584.56;;;33.95;27.51
20228;BME280;12195;55.790;37.572;2023-07-16T11:49:50;99592.30;;;34.33;28.80
20228;BME280;12195;55.790;37.572;2023-07-16T11:52:27;99581.95;;;34.23;27.00
20228;BME280;12195;55.790;37.572;2023-07-16T11:55:10;99586.16;;;35.77;27.62
20228;BME280;12195;55.790;37.572;2023-07-16T11:57:54;99574.81;;;37.58;25.73
20228;BME280;12195;55.790;37.572;2023-07-16T12:00:39;99580.20;;;39.29;23.31
20228;BME280;12195;55.790;37.572;2023-07-16T12:03:12;99579.39;;;39.28;21.16
20228;BME280;12195;55.790;37.572;2023-07-16T12:05:54;99592.13;;;40.93;21.62
20228;BME280;12195;55.790;37.572;2023-07-16T12:08:27;99597.36;;;40.94;19.67
20228;BME280;12195;55.790;37.572;2023-07-16T12:11:12;99606.52;;;42.39;20.04
20228;BME280;12195;55.790;37.572;2023-07-16T12:13:56;99595.00;;;42.79;18.99
20228;BME280;12195;55.790;37.572;2023-07-16T12:16:28;99581.37;;;41.84;18.21
20228;BME280;12195;55.790;37.572;2023-07-16T12:19:14;99589.00;;;43.33;19.21
20228;BME280;12195;55.790;37.572;2023-07-16T12:21:47;99562.14;;;42.96;17.21
20228;BME280;12195;55.790;37.572;2023-07-16T12:24:31;99563.22;;;42.77;18.82
20228;BME280;12195;55.790;37.572;2023-07-16T12:27:04;99558.66;;;40.61;19.58
20228;BME280;12195;55.790;37.572;2023-07-16T12:29:37;99552.61;;;41.56;18.04
20228;BME280;12195;55.790;37.572;2023-07-16T12:32:09;99543.87;;;42.77;17.08
20228;BME280;12195;55.790;37.572;2023-07-16T12:34:52;99562.55;;;43.08;17.19
20228;BME280;12195;55.790;37.572;2023-07-16T12:37:26;99555.52;;;39.79;19.42
20228;BME280;12195;55.790;37.572;2023-07-16T12:40:09;99576.70;;;39.53;21.04
20228;BME280;12195;55.790;37.572;2023-07-16T12:42:52;99568.11;;;38.48;22.19
20228;BME280;12195;55.790;37.572;2023-07-16T12:45:25;99558.78;;;36.27;23.32
20228;BME280;12195;55.790;37.572;2023-07-16T12:48:10;99586.42;;;38.38;22.09
20228;BME280;12195;55.790;37.572;2023-07-16T12:50:43;99554.00;;;38.35;21.76
20228;BME280;12195;55.790;37.572;2023-07-16T12:53:26;99571.16;;;41.79;19.56
20228;BME280;12195;55.790;37.572;2023-07-16T12:55:59;99549.66;;;42.33;18.10
20228;BME280;12195;55.790;37.572;2023-07-16T12:58:41;99572.23;;;44.79;16.63
20228;BME280;12195;55.790;37.572;2023-07-16T13:01:14;99555.09;;;44.50;15.76
20228;BME280;12195;55.790;37.572;2023-07-16T13:03:57;99571.39;;;46.38;15.29
20228;BME280;12195;55.790;37.572;2023-07-16T13:06:30;99566.31;;;45.79;14.02
20228;BME280;12195;55.790;37.572;2023-07-16T13:09:15;99575.37;;;46.46;14.66
20228;BME280;12195;55.790;37.572;2023-07-16T13:12:01;99564.93;;;44.83;15.27
20228;BME280;12195;55.790;37.572;2023-07-16T13:14:44;99563.79;;;46.22;15.43
20228;BME280;12195;55.790;37.572;2023-07-16T13:17:26;99558.66;;;46.93;14.09
20228;BME280;12195;55.790;37.572;2023-07-16T13:19:59;99547.60;;;46.63;13.31
20228;BME280;12195;55.790;37.572;2023-07-16T13:22:41;99553.36;;;48.19;13.49
20228;BME280;12195;55.790;37.572;2023-07-16T13:25:15;99538.72;;;47.59;12.86
20228;BME280;12195;55.790;37.572;2023-07-16T13:27:57;99551.34;;;48.87;13.31
20228;BME280;12195;55.790;37.572;2023-07-16T13:30:30;99549.91;;;46.61;13.70
20228;BME280;12195;55.790;37.572;2023-07-16T13:33:03;99543.63;;;45.86;14.45
20228;BME280;12195;55.790;37.572;2023-07-16T13:35:46;99545.47;;;45.90;15.22
20228;BME280;12195;55.790;37.572;2023-07-16T13:38:32;99550.95;;;43.43;17.15
20228;BME280;12195;55.790;37.572;2023-07-16T13:41:18;99550.92;;;41.60;18.12
20228;BME280;12195;55.790;37.572;2023-07-16T13:43:51;99544.61;;;38.82;20.13
20228;BME280;12195;55.790;37.572;2023-07-16T13:46:34;99557.80;;;38.75;20.33
20228;BME280;12195;55.790;37.572;2023-07-16T13:49:08;99550.69;;;37.01;21.24
20228;BME280;12195;55.790;37.572;2023-07-16T13:51:41;99552.50;;;35.93;22.39
20228;BME280;12195;55.790;37.572;2023-07-16T13:54:26;99560.74;;;35.77;22.85
20228;BME280;12195;55.790;37.572;2023-07-16T13:57:09;99561.17;;;34.96;24.15
20228;BME280;12195;55.790;37.572;2023-07-16T13:59:41;99554.14;;;33.46;25.61
20228;BME280;12195;55.790;37.572;2023-07-16T14:02:25;99558.66;;;33.40;26.06